Time;durP1;ratioP1;P1;durP2;ratioP2;P2;SDS_P1;SDS_P2;PMS_P1;PMS_P2;Temp;Humidity;BMP_temperature;BMP_pressure;BME280_temperature;BME280_humidity;BME280_pressure;Samples;Min_cycle;Max_cycle;Signal;HPM_P1;HPM_P2
2023/03/13 00:00:29;;;;;;;;;;;;;;;4.31;72.58;92648.38;2052110;70;20110;-75
2023/03/13 00:02:54;;;;;;;;;;;;;;;4.06;74.14;92645.63;2051998;70;20081;-74
2023/03/13 00:05:20;;;;;;;;;;;;;;;4.10;74.01;92640.38;2052026;70;20062;-74
2023/03/13 00:07:45;;;;;;;;;;;;;;;4.16;74.50;92649.25;2051805;70;20047;-74
2023/03/13 00:10:11;;;;;;;;;;;;;;;4.19;74.39;92639.00;2052069;70;20420;-74
2023/03/13 00:12:36;;;;;;;;;;;;;;;4.09;74.48;92636.13;2051955;70;20141;-74
2023/03/13 00:15:02;;;;;;;;;;;;;;;4.04;74.53;92635.06;2052121;70;20094;-74
2023/03/13 00:17:28;;;;;;;;;;;;;;;4.24;73.91;92626.88;2051503;70;20047;-74
2023/03/13 00:19:54;;;;;;;;;;;;;;;4.20;73.58;92620.97;2045771;70;20077;-74
2023/03/13 00:22:20;;;;;;;;;;;;;;;4.19;73.36;92623.03;2051977;70;20100;-74
2023/03/13 00:24:45;;;;;;;;;;;;;;;4.10;74.05;92606.22;2052019;70;20086;-74
2023/03/13 00:27:11;;;;;;;;;;;;;;;4.19;73.19;92608.38;2051483;70;20050;-74
2023/03/13 00:29:36;;;;;;;;;;;;;;;4.22;73.22;92613.53;2051856;70;20145;-73
2023/03/13 00:32:02;;;;;;;;;;;;;;;4.18;72.71;92604.09;2051835;70;20155;-74
2023/03/13 00:34:30;;;;;;;;;;;;;;;4.15;73.21;92596.88;2048245;70;20490;-73
2023/03/13 00:36:59;;;;;;;;;;;;;;;4.20;72.59;92602.22;2051541;69;20051;-73
2023/03/13 00:39:26;;;;;;;;;;;;;;;4.21;73.11;92598.09;2048895;70;20172;-74
2023/03/13 00:41:52;;;;;;;;;;;;;;;4.20;72.90;92588.28;2052519;70;20149;-73
2023/03/13 00:44:17;;;;;;;;;;;;;;;4.15;72.70;92588.53;2049001;70;20114;-73
2023/03/13 00:46:46;;;;;;;;;;;;;;;4.00;73.60;92592.94;2049128;70;20051;-74
2023/03/13 00:49:13;;;;;;;;;;;;;;;4.03;73.26;92588.25;2048767;70;20144;-73
2023/03/13 00:51:38;;;;;;;;;;;;;;;4.05;73.38;92588.44;2052275;70;20058;-73
2023/03/13 00:54:13;;;;;;;;;;;;;;;4.05;73.15;92594.75;2052304;70;20046;-74
2023/03/13 00:56:44;;;;;;;;;;;;;;;3.67;75.06;92594.34;2049209;69;20112;-73
2023/03/13 00:59:10;;;;;;;;;;;;;;;3.64;75.94;92595.47;2048935;70;20344;-73
2023/03/13 01:01:35;;;;;;;;;;;;;;;3.79;74.24;92598.84;2052225;70;20489;-74
2023/03/13 01:04:03;;;;;;;;;;;;;;;3.82;74.46;92600.50;2049043;70;20093;-74
2023/03/13 01:06:34;;;;;;;;;;;;;;;3.79;74.75;92590.50;2052457;70;20232;-73
2023/03/13 01:08:59;;;;;;;;;;;;;;;3.47;76.16;92590.56;2052252;70;20050;-74
2023/03/13 01:11:27;;;;;;;;;;;;;;;3.57;75.46;92580.28;2052270;70;20505;-74
2023/03/13 01:13:57;;;;;;;;;;;;;;;3.66;75.19;92579.66;2052286;70;20082;-73
2023/03/13 01:16:28;;;;;;;;;;;;;;;3.62;74.27;92573.00;2052431;70;20059;-73
2023/03/13 01:18:55;;;;;;;;;;;;;;;3.60;73.95;92578.41;2051957;70;20051;-74
2023/03/13 01:21:22;;;;;;;;;;;;;;;3.43;75.83;92584.66;2051962;70;20134;-73
2023/03/13 01:23:52;;;;;;;;;;;;;;;3.63;75.10;92585.66;2052182;70;20094;-73
2023/03/13 01:26:18;;;;;;;;;;;;;;;3.45;75.70;92582.78;2052071;70;20046;-74
2023/03/13 01:28:43;;;;;;;;;;;;;;;3.63;74.85;92580.06;2052257;69;20421;-74
2023/03/13 01:31:13;;;;;;;;;;;;;;;3.58;74.59;92581.03;2052267;70;20057;-74
2023/03/13 01:33:38;;;;;;;;;;;;;;;3.41;75.56;92581.72;2049003;70;20167;-73
2023/03/13 01:36:04;;;;;;;;;;;;;;;3.41;75.26;92579.66;2052304;70;20500;-73
2023/03/13 01:38:29;;;;;;;;;;;;;;;2.98;79.11;92581.63;2052219;70;20057;-74
2023/03/13 01:40:58;;;;;;;;;;;;;;;3.28;76.68;92571.59;2048974;70;20177;-73
2023/03/13 01:43:25;;;;;;;;;;;;;;;3.39;75.64;92578.75;2048949;70;20165;-74
2023/03/13 01:46:01;;;;;;;;;;;;;;;3.38;76.12;92575.22;2048938;70;20057;-74
2023/03/13 01:48:49;;;;;;;;;;;;;;;3.50;75.76;92565.13;2049023;69;20579;-74
2023/03/13 01:51:16;;;;;;;;;;;;;;;3.06;78.98;92562.81;2049027;70;20150;-74
2023/03/13 01:53:42;;;;;;;;;;;;;;;3.02;79.68;92548.59;2052266;70;20157;-74
2023/03/13 01:56:12;;;;;;;;;;;;;;;3.32;77.99;92549.69;2049175;70;20057;-74
2023/03/13 01:58:38;;;;;;;;;;;;;;;3.53;76.00;92546.56;2048986;70;20061;-75
2023/03/13 02:01:04;;;;;;;;;;;;;;;3.44;75.77;92549.97;2048768;70;20090;-74
2023/03/13 02:03:30;;;;;;;;;;;;;;;3.47;74.85;92543.25;2051884;70;20101;-74
2023/03/13 02:05:58;;;;;;;;;;;;;;;3.55;74.87;92557.84;2048607;70;20090;-74
2023/03/13 02:08:29;;;;;;;;;;;;;;;3.55;74.68;92558.59;2052132;70;20094;-74
2023/03/13 02:11:04;;;;;;;;;;;;;;;3.51;75.72;92549.91;2052051;70;20055;-74
2023/03/13 02:13:31;;;;;;;;;;;;;;;3.50;75.79;92556.03;2046084;70;20497;-74
2023/03/13 02:15:56;;;;;;;;;;;;;;;3.54;75.85;92540.41;2052182;70;20136;-73
2023/03/13 02:18:22;;;;;;;;;;;;;;;3.60;75.06;92547.81;2048797;70;20485;-74
2023/03/13 02:20:50;;;;;;;;;;;;;;;3.19;78.66;92542.34;2048748;70;20145;-74
2023/03/13 02:23:16;;;;;;;;;;;;;;;3.47;77.90;92532.13;2048946;70;20050;-74
2023/03/13 02:25:45;;;;;;;;;;;;;;;3.46;77.01;92531.38;2049012;70;20133;-74
2023/03/13 02:28:16;;;;;;;;;;;;;;;3.56;76.61;92535.00;2048927;69;20362;-73
2023/03/13 02:30:43;;;;;;;;;;;;;;;3.30;78.36;92528.00;2052207;70;20497;-74
2023/03/13 02:33:10;;;;;;;;;;;;;;;3.56;77.28;92525.94;2051776;70;20428;-75
2023/03/13 02:35:35;;;;;;;;;;;;;;;3.58;76.95;92512.19;2045998;70;20050;-75
2023/03/13 02:38:06;;;;;;;;;;;;;;;3.50;77.00;92517.81;2048814;70;20139;-72
2023/03/13 02:40:34;;;;;;;;;;;;;;;3.33;79.00;92517.75;2051976;70;20046;-73
2023/03/13 02:43:00;;;;;;;;;;;;;;;3.59;77.53;92512.94;2048803;70;20145;-73
2023/03/13 02:45:27;;;;;;;;;;;;;;;3.65;76.13;92500.22;2048755;70;20461;-73
2023/03/13 02:47:52;;;;;;;;;;;;;;;3.72;75.95;92509.84;2048821;70;20070;-73
2023/03/13 02:50:18;;;;;;;;;;;;;;;3.54;76.90;92501.44;2048400;70;20577;-73
2023/03/13 02:52:54;;;;;;;;;;;;;;;3.67;76.34;92505.97;2051712;70;20043;-72
2023/03/13 02:55:39;;;;;;;;;;;;;;;3.59;76.07;92507.34;2048737;69;20083;-73
2023/03/13 02:58:06;;;;;;;;;;;;;;;3.63;76.77;92502.13;2048810;70;20059;-73
2023/03/13 03:00:34;;;;;;;;;;;;;;;3.74;75.86;92494.03;2048663;70;20074;-73
2023/03/13 03:03:00;;;;;;;;;;;;;;;3.70;75.87;92490.16;2051699;70;20054;-73
2023/03/13 03:05:25;;;;;;;;;;;;;;;3.31;78.33;92495.34;2048642;70;20051;-73
2023/03/13 03:07:51;;;;;;;;;;;;;;;3.58;77.30;92495.50;2048738;70;20145;-73
2023/03/13 03:10:17;;;;;;;;;;;;;;;3.68;75.78;92501.16;2048809;70;20145;-73
2023/03/13 03:12:42;;;;;;;;;;;;;;;3.63;76.44;92486.16;2048754;70;20066;-73
2023/03/13 03:15:08;;;;;;;;;;;;;;;3.47;76.55;92488.34;2048768;69;20049;-73
2023/03/13 03:17:36;;;;;;;;;;;;;;;3.47;77.50;92490.38;2045610;70;20047;-73
2023/03/13 03:20:04;;;;;;;;;;;;;;;3.55;77.50;92486.22;2052156;70;20111;-73
2023/03/13 03:22:30;;;;;;;;;;;;;;;3.56;77.23;92487.69;2052059;70;20051;-73
2023/03/13 03:24:55;;;;;;;;;;;;;;;3.61;76.95;92488.75;2048663;70;20047;-73
2023/03/13 03:27:22;;;;;;;;;;;;;;;3.65;76.42;92493.94;2048715;70;20053;-73
2023/03/13 03:29:52;;;;;;;;;;;;;;;3.30;78.93;92489.03;2048482;70;20047;-75
2023/03/13 03:32:17;;;;;;;;;;;;;;;3.56;77.77;92486.97;2048476;70;20043;-73
2023/03/13 03:34:43;;;;;;;;;;;;;;;3.60;77.23;92490.06;2048807;70;20114;-74
2023/03/13 03:37:08;;;;;;;;;;;;;;;3.73;76.81;92494.59;2052226;70;20062;-74
2023/03/13 03:39:35;;;;;;;;;;;;;;;3.67;77.02;92497.63;2052167;70;20405;-74
2023/03/13 03:42:01;;;;;;;;;;;;;;;3.82;75.88;92486.34;2048761;70;20494;-74
2023/03/13 03:44:27;;;;;;;;;;;;;;;3.38;77.14;92499.38;2048792;70;20043;-74
2023/03/13 03:46:54;;;;;;;;;;;;;;;3.30;79.37;92502.97;2048767;70;20055;-73
2023/03/13 03:49:21;;;;;;;;;;;;;;;3.64;77.02;92506.38;2048721;70;20077;-74
2023/03/13 03:51:48;;;;;;;;;;;;;;;3.70;76.95;92504.09;2045916;70;20501;-74
2023/03/13 03:54:14;;;;;;;;;;;;;;;3.37;76.61;92509.75;2048808;70;20448;-74
2023/03/13 03:56:51;;;;;;;;;;;;;;;3.35;78.32;92506.81;2048235;70;20113;-73
2023/03/13 03:59:19;;;;;;;;;;;;;;;3.40;78.24;92505.84;2048440;70;20061;-74
2023/03/13 04:01:57;;;;;;;;;;;;;;;3.45;78.09;92488.19;2051957;70;20086;-73
2023/03/13 04:04:26;;;;;;;;;;;;;;;3.52;77.95;92490.13;2048445;70;20069;-74
2023/03/13 04:07:05;;;;;;;;;;;;;;;3.65;76.54;92485.59;2048537;70;20534;-74
2023/03/13 04:09:34;;;;;;;;;;;;;;;3.37;76.76;92481.19;2048353;70;20507;-74
2023/03/13 04:12:02;;;;;;;;;;;;;;;3.25;77.90;92478.88;2048437;70;20051;-73
2023/03/13 04:14:36;;;;;;;;;;;;;;;3.62;76.85;92467.22;2049176;70;20082;-73
2023/03/13 04:17:04;;;;;;;;;;;;;;;3.76;75.57;92471.94;2049028;70;20146;-74
2023/03/13 04:19:30;;;;;;;;;;;;;;;3.74;75.48;92474.53;2049183;70;20061;-74
2023/03/13 04:21:56;;;;;;;;;;;;;;;3.78;74.96;92474.13;2049189;70;20047;-75
2023/03/13 04:24:21;;;;;;;;;;;;;;;3.68;75.02;92470.53;2052247;70;20086;-73
2023/03/13 04:26:47;;;;;;;;;;;;;;;3.54;76.43;92481.97;2049294;70;20150;-74
2023/03/13 04:29:14;;;;;;;;;;;;;;;3.67;75.69;92464.22;2052429;70;20089;-74
2023/03/13 04:31:59;;;;;;;;;;;;;;;3.65;75.29;92466.81;2049053;70;20047;-73
2023/03/13 04:34:33;;;;;;;;;;;;;;;3.62;75.52;92467.22;2052473;70;20114;-72
2023/03/13 04:37:34;;;;;;;;;;;;;;;3.75;75.24;92455.78;2038267;70;20079;-74
2023/03/13 04:40:29;;;;;;;;;;;;;;;3.58;75.90;92459.31;2056121;69;20180;-74
2023/03/13 04:43:18;;;;;;;;;;;;;;;3.46;76.80;92469.44;2045335;70;20058;-74
2023/03/13 04:46:01;;;;;;;;;;;;;;;3.67;75.65;92441.94;2045440;70;20055;-74
2023/03/13 04:48:41;;;;;;;;;;;;;;;3.54;75.62;92448.56;2045097;70;20056;-74
2023/03/13 04:51:25;;;;;;;;;;;;;;;3.65;76.27;92466.81;2045916;70;20110;-74
2023/03/13 04:54:13;;;;;;;;;;;;;;;3.69;75.47;92466.44;2045667;70;20165;-74
2023/03/13 04:57:05;;;;;;;;;;;;;;;3.58;75.98;92464.88;2050180;69;20058;-74
2023/03/13 04:59:53;;;;;;;;;;;;;;;3.74;75.43;92463.41;2045195;70;20095;-73
2023/03/13 05:02:39;;;;;;;;;;;;;;;3.78;75.56;92466.50;2041795;70;20451;-74
2023/03/13 05:05:23;;;;;;;;;;;;;;;3.80;75.74;92440.88;2045277;70;20125;-74
2023/03/13 05:07:56;;;;;;;;;;;;;;;3.61;76.24;92449.78;2045211;70;20048;-75
2023/03/13 05:10:34;;;;;;;;;;;;;;;3.64;76.89;92457.00;2045168;70;20071;-74
2023/03/13 05:13:18;;;;;;;;;;;;;;;3.79;75.92;92444.97;2046032;70;20055;-74
2023/03/13 05:16:13;;;;;;;;;;;;;;;3.79;75.73;92454.06;2045136;70;20167;-74
2023/03/13 05:19:11;;;;;;;;;;;;;;;3.85;75.04;92453.06;2045723;70;20061;-74
2023/03/13 05:22:00;;;;;;;;;;;;;;;3.71;75.49;92452.66;2045022;70;20058;-74
2023/03/13 05:24:47;;;;;;;;;;;;;;;3.48;77.18;92464.78;2045269;70;20423;-74
2023/03/13 05:27:31;;;;;;;;;;;;;;;3.61;77.24;92460.94;2045608;70;20066;-74
2023/03/13 05:30:18;;;;;;;;;;;;;;;3.77;76.37;92455.97;2044091;70;20147;-74
2023/03/13 05:33:22;;;;;;;;;;;;;;;3.69;76.46;92458.06;2042085;69;20437;-73
2023/03/13 05:36:26;;;;;;;;;;;;;;;3.96;75.36;92466.53;2043368;70;20090;-73
2023/03/13 05:39:18;;;;;;;;;;;;;;;4.03;75.13;92460.88;2052257;70;20163;-73
2023/03/13 05:41:47;;;;;;;;;;;;;;;3.38;76.33;92455.56;2047718;69;20051;-75
2023/03/13 05:44:28;;;;;;;;;;;;;;;3.74;76.56;92460.59;2049051;70;20043;-74
2023/03/13 05:47:04;;;;;;;;;;;;;;;3.83;76.24;92450.88;2046080;70;20149;-75
2023/03/13 05:49:58;;;;;;;;;;;;;;;4.03;74.97;92435.81;2048664;70;20088;-74
2023/03/13 05:52:46;;;;;;;;;;;;;;;3.93;75.48;92440.53;2047125;70;20062;-74
2023/03/13 05:55:21;;;;;;;;;;;;;;;4.03;75.47;92435.81;2049347;70;20055;-74
2023/03/13 05:57:58;;;;;;;;;;;;;;;3.96;76.20;92444.97;2049284;70;20482;-72
2023/03/13 06:00:44;;;;;;;;;;;;;;;4.14;75.43;92420.63;2048151;70;20176;-72
2023/03/13 06:03:28;;;;;;;;;;;;;;;4.17;75.60;92422.25;2051017;70;20144;-74
2023/03/13 06:05:58;;;;;;;;;;;;;;;4.15;75.58;92436.03;2051885;70;20512;-74
2023/03/13 06:08:45;;;;;;;;;;;;;;;4.28;74.87;92432.88;2051872;70;20085;-73
2023/03/13 06:11:11;;;;;;;;;;;;;;;4.15;74.72;92416.53;2051806;70;20086;-73
2023/03/13 06:13:36;;;;;;;;;;;;;;;4.07;75.47;92427.75;2051837;70;20475;-73
2023/03/13 06:16:10;;;;;;;;;;;;;;;4.02;75.35;92428.00;2051836;70;20078;-74
2023/03/13 06:18:43;;;;;;;;;;;;;;;4.34;74.43;92413.13;2051693;70;20494;-74
2023/03/13 06:21:09;;;;;;;;;;;;;;;4.02;75.62;92414.06;2052394;69;20105;-74
2023/03/13 06:23:35;;;;;;;;;;;;;;;4.32;74.93;92413.69;2052303;69;20086;-74
2023/03/13 06:26:00;;;;;;;;;;;;;;;4.48;74.37;92400.28;2052315;70;20106;-74
2023/03/13 06:28:46;;;;;;;;;;;;;;;4.60;73.12;92417.22;2048254;70;20115;-74
2023/03/13 06:31:11;;;;;;;;;;;;;;;4.61;72.81;92429.13;2045428;70;20085;-74
2023/03/13 06:33:37;;;;;;;;;;;;;;;4.37;74.30;92427.97;2047974;70;20080;-74
2023/03/13 06:36:03;;;;;;;;;;;;;;;4.65;73.64;92404.34;2055786;69;20093;-74
2023/03/13 06:38:29;;;;;;;;;;;;;;;4.76;73.33;92401.75;2067636;69;20088;-74
2023/03/13 06:40:54;;;;;;;;;;;;;;;4.92;72.37;92404.31;2067525;69;20093;-75
2023/03/13 06:43:20;;;;;;;;;;;;;;;4.53;73.27;92387.41;2067634;69;20144;-75
2023/03/13 06:45:46;;;;;;;;;;;;;;;4.33;75.20;92392.88;2067611;69;20136;-74
2023/03/13 06:48:11;;;;;;;;;;;;;;;4.80;74.11;92392.94;2067420;69;20045;-75
2023/03/13 06:50:37;;;;;;;;;;;;;;;4.85;73.15;92391.94;2067601;69;20158;-77
2023/03/13 06:53:03;;;;;;;;;;;;;;;4.70;73.65;92390.13;2061935;69;20136;-75
2023/03/13 06:55:28;;;;;;;;;;;;;;;5.01;72.92;92395.25;2067668;69;20053;-75
2023/03/13 06:57:54;;;;;;;;;;;;;;;5.09;72.67;92398.66;2067620;69;20061;-76
2023/03/13 07:00:19;;;;;;;;;;;;;;;4.45;74.56;92409.81;2067445;69;20053;-75
2023/03/13 07:02:45;;;;;;;;;;;;;;;4.76;73.64;92401.75;2071833;69;20041;-75
2023/03/13 07:05:13;;;;;;;;;;;;;;;5.19;72.54;92423.78;2071674;69;20092;-75
2023/03/13 07:07:40;;;;;;;;;;;;;;;5.07;72.35;92426.38;2071985;69;20131;-75
2023/03/13 07:10:06;;;;;;;;;;;;;;;4.88;72.74;92415.16;2071798;69;20045;-75
2023/03/13 07:12:32;;;;;;;;;;;;;;;4.91;72.83;92420.31;2071774;69;20044;-75
2023/03/13 07:14:58;;;;;;;;;;;;;;;5.10;72.06;92425.97;2071775;69;20049;-74
2023/03/13 07:17:23;;;;;;;;;;;;;;;5.32;72.28;92437.34;2071678;69;20084;-75
2023/03/13 07:19:49;;;;;;;;;;;;;;;5.01;72.70;92442.66;2071847;69;20095;-75
2023/03/13 07:22:14;;;;;;;;;;;;;;;5.18;72.21;92425.84;2071310;69;20088;-74
2023/03/13 07:24:39;;;;;;;;;;;;;;;5.67;71.21;92426.69;2071907;69;20117;-75
2023/03/13 07:27:05;;;;;;;;;;;;;;;5.93;70.49;92429.97;2071750;69;20048;-75
2023/03/13 07:29:30;;;;;;;;;;;;;;;5.63;71.11;92422.84;2072019;69;20049;-75
2023/03/13 07:31:57;;;;;;;;;;;;;;;5.73;70.12;92423.63;2071742;69;20106;-75
2023/03/13 07:34:22;;;;;;;;;;;;;;;5.66;70.44;92430.06;2071642;69;20045;-75
2023/03/13 07:36:48;;;;;;;;;;;;;;;5.71;70.36;92426.25;2068292;69;20055;-75
2023/03/13 07:39:13;;;;;;;;;;;;;;;5.78;70.15;92417.75;2071584;69;20108;-75
2023/03/13 07:41:38;;;;;;;;;;;;;;;5.56;68.84;92419.63;2071543;69;20135;-75
2023/03/13 07:44:04;;;;;;;;;;;;;;;6.01;69.12;92417.34;2071113;69;20143;-74
2023/03/13 07:46:30;;;;;;;;;;;;;;;6.06;68.95;92413.50;2071655;69;20455;-74
2023/03/13 07:48:55;;;;;;;;;;;;;;;6.04;69.80;92409.81;2071840;69;20087;-74
2023/03/13 07:51:23;;;;;;;;;;;;;;;5.81;69.02;92415.81;2072495;69;20053;-74
2023/03/13 07:53:49;;;;;;;;;;;;;;;5.80;67.82;92419.94;2072135;69;20489;-74
2023/03/13 07:56:16;;;;;;;;;;;;;;;6.21;66.33;92423.63;2072157;69;20052;-75
2023/03/13 07:58:42;;;;;;;;;;;;;;;6.40;65.88;92406.09;2072120;69;20049;-74
2023/03/13 08:01:08;;;;;;;;;;;;;;;6.65;66.37;92414.16;2071846;69;20068;-74
2023/03/13 08:03:35;;;;;;;;;;;;;;;6.58;66.78;92423.44;2071937;69;20072;-75
2023/03/13 08:06:03;;;;;;;;;;;;;;;6.24;67.18;92411.28;2072158;69;20040;-74
2023/03/13 08:08:29;;;;;;;;;;;;;;;6.59;65.51;92396.94;2072241;69;20491;-74
2023/03/13 08:11:24;;;;;;;;;;;;;;;6.66;64.91;92396.06;2072036;69;20057;-77
2023/03/13 08:13:49;;;;;;;;;;;;;;;6.95;66.64;92395.94;2057548;69;20078;-76
2023/03/13 08:16:19;;;;;;;;;;;;;;;6.71;66.11;92392.22;2057571;69;20049;-75
2023/03/13 08:18:51;;;;;;;;;;;;;;;7.02;62.78;92385.91;2054543;69;20101;-76
2023/03/13 08:21:19;;;;;;;;;;;;;;;7.19;62.94;92388.47;2057431;69;20135;-75
2023/03/13 08:23:45;;;;;;;;;;;;;;;7.06;61.19;92383.41;2057484;69;20171;-76
2023/03/13 08:26:12;;;;;;;;;;;;;;;7.30;60.77;92375.91;2057491;69;20049;-74
2023/03/13 08:28:38;;;;;;;;;;;;;;;7.51;61.37;92363.97;2057495;69;20050;-75
2023/03/13 08:31:06;;;;;;;;;;;;;;;7.46;61.26;92370.66;2057551;69;20046;-74
2023/03/13 08:33:32;;;;;;;;;;;;;;;7.05;63.31;92367.91;2057408;69;20056;-75
2023/03/13 08:35:57;;;;;;;;;;;;;;;7.51;63.29;92373.13;2057426;69;20066;-75
2023/03/13 08:38:22;;;;;;;;;;;;;;;7.75;62.59;92378.88;2057582;69;20509;-75
2023/03/13 08:40:48;;;;;;;;;;;;;;;7.82;63.34;92384.25;2057495;69;20046;-74
2023/03/13 08:43:13;;;;;;;;;;;;;;;7.53;63.36;92373.25;2057751;69;20169;-74
2023/03/13 08:45:38;;;;;;;;;;;;;;;7.09;64.20;92376.59;2057447;69;20052;-74
2023/03/13 08:48:04;;;;;;;;;;;;;;;7.19;64.12;92377.28;2057464;69;20555;-76
2023/03/13 08:50:29;;;;;;;;;;;;;;;7.36;61.34;92376.31;2066775;69;20154;-73
2023/03/13 08:52:55;;;;;;;;;;;;;;;7.62;61.61;92371.75;2072094;69;20051;-73
2023/03/13 08:55:20;;;;;;;;;;;;;;;7.76;61.69;92383.88;2072059;69;20498;-73
2023/03/13 08:57:46;;;;;;;;;;;;;;;7.62;62.06;92375.28;2071542;69;20535;-73
2023/03/13 09:00:12;;;;;;;;;;;;;;;7.56;62.37;92380.47;2072128;69;20048;-73
2023/03/13 09:02:38;;;;;;;;;;;;;;;7.88;60.82;92379.06;2071965;69;20065;-74
2023/03/13 09:05:03;;;;;;;;;;;;;;;7.69;61.83;92370.06;2072046;69;20072;-76
2023/03/13 09:07:29;;;;;;;;;;;;;;;7.72;61.68;92358.38;2072054;69;20049;-74
2023/03/13 09:09:54;;;;;;;;;;;;;;;7.78;61.48;92374.84;2072093;69;20503;-73
2023/03/13 09:12:19;;;;;;;;;;;;;;;7.91;61.77;92374.31;2072064;69;20040;-76
2023/03/13 09:14:46;;;;;;;;;;;;;;;8.14;61.65;92384.91;2072183;69;20154;-75
2023/03/13 09:17:12;;;;;;;;;;;;;;;7.95;63.80;92379.47;2071515;69;20060;-74
2023/03/13 09:19:37;;;;;;;;;;;;;;;7.63;63.92;92370.41;2071961;69;20064;-74
2023/03/13 09:22:02;;;;;;;;;;;;;;;8.05;63.44;92352.81;2072136;69;20542;-74
2023/03/13 09:24:28;;;;;;;;;;;;;;;8.21;62.71;92347.53;2072092;69;20049;-72
2023/03/13 09:26:53;;;;;;;;;;;;;;;8.37;61.82;92347.81;2071986;69;20072;-74
2023/03/13 09:29:19;;;;;;;;;;;;;;;8.55;58.82;92325.78;2072153;69;20081;-74
2023/03/13 09:31:44;;;;;;;;;;;;;;;8.78;55.33;92325.09;2071990;69;20052;-77
2023/03/13 09:34:10;;;;;;;;;;;;;;;9.22;52.64;92312.28;2071976;69;20150;-76
2023/03/13 09:36:35;;;;;;;;;;;;;;;9.63;51.84;92316.13;2063587;69;20062;-74
2023/03/13 09:39:01;;;;;;;;;;;;;;;9.88;51.56;92309.09;2055787;70;20433;-73
2023/03/13 09:41:26;;;;;;;;;;;;;;;10.11;55.41;92311.78;2055750;70;20047;-73
2023/03/13 09:43:52;;;;;;;;;;;;;;;10.44;56.46;92308.00;2055849;70;20173;-75
2023/03/13 09:46:27;;;;;;;;;;;;;;;9.89;55.54;92300.03;2055957;69;20101;-73
2023/03/13 09:49:01;;;;;;;;;;;;;;;10.85;56.84;92310.19;2055533;70;20039;-74
2023/03/13 09:51:37;;;;;;;;;;;;;;;11.15;54.72;92306.16;2055878;69;20162;-74
2023/03/13 09:54:07;;;;;;;;;;;;;;;11.49;53.09;92291.66;2055687;69;20042;-74
2023/03/13 09:56:49;;;;;;;;;;;;;;;12.18;52.16;92301.47;2055623;70;20437;-74
2023/03/13 09:59:21;;;;;;;;;;;;;;;11.11;51.84;92296.78;2055709;70;20486;-74
2023/03/13 10:01:48;;;;;;;;;;;;;;;11.81;51.51;92284.09;2055591;70;20491;-74
2023/03/13 10:04:32;;;;;;;;;;;;;;;12.62;50.52;92281.66;2055605;70;20081;-74
2023/03/13 10:06:57;;;;;;;;;;;;;;;12.10;46.37;92286.25;2055770;70;20059;-74
2023/03/13 10:09:29;;;;;;;;;;;;;;;12.33;48.15;92288.78;2055883;70;20073;-74
2023/03/13 10:12:04;;;;;;;;;;;;;;;12.39;50.33;92274.97;2068552;69;20066;-74
2023/03/13 10:14:32;;;;;;;;;;;;;;;12.85;49.06;92260.81;2055936;70;20409;-76
2023/03/13 10:17:00;;;;;;;;;;;;;;;13.26;48.62;92268.31;2055707;70;20042;-75
2023/03/13 10:19:30;;;;;;;;;;;;;;;12.99;47.90;92269.94;2055492;70;20478;-75
2023/03/13 10:21:56;;;;;;;;;;;;;;;12.64;48.70;92270.44;2055515;70;20517;-75
2023/03/13 10:24:39;;;;;;;;;;;;;;;12.17;49.37;92268.97;2055537;70;20049;-75
2023/03/13 10:27:07;;;;;;;;;;;;;;;12.05;50.18;92276.13;2055569;70;20120;-73
2023/03/13 10:29:32;;;;;;;;;;;;;;;11.85;49.77;92270.97;2055550;70;20255;-76
2023/03/13 10:31:59;;;;;;;;;;;;;;;11.91;50.33;92264.88;2055658;69;20146;-75
2023/03/13 10:34:28;;;;;;;;;;;;;;;11.87;50.33;92261.88;2055399;70;20073;-75
2023/03/13 10:36:56;;;;;;;;;;;;;;;12.18;49.73;92258.41;2055496;70;20493;-76
2023/03/13 10:39:24;;;;;;;;;;;;;;;12.32;47.66;92249.91;2055563;70;20086;-76
2023/03/13 10:41:55;;;;;;;;;;;;;;;12.44;47.21;92253.28;2055423;70;20119;-76
2023/03/13 10:44:22;;;;;;;;;;;;;;;12.65;46.69;92238.03;2055509;70;20459;-76
2023/03/13 10:46:49;;;;;;;;;;;;;;;12.49;45.92;92246.47;2068592;69;20050;-76
2023/03/13 10:49:22;;;;;;;;;;;;;;;12.74;47.10;92251.16;2055359;70;20109;-74
2023/03/13 10:51:58;;;;;;;;;;;;;;;12.74;48.77;92253.97;2055710;70;20062;-74
2023/03/13 10:54:28;;;;;;;;;;;;;;;13.56;47.26;92252.66;2055634;70;20051;-74
2023/03/13 10:57:14;;;;;;;;;;;;;;;14.09;47.22;92254.13;2055747;70;20046;-75
2023/03/13 10:59:43;;;;;;;;;;;;;;;15.58;43.54;92243.47;2053150;69;20050;-75
2023/03/13 11:02:27;;;;;;;;;;;;;;;16.17;41.04;92245.50;2055468;70;20512;-75
2023/03/13 11:04:53;;;;;;;;;;;;;;;14.94;42.06;92231.97;2056249;70;20058;-74
2023/03/13 11:07:27;;;;;;;;;;;;;;;17.35;38.96;92227.75;2055765;70;20046;-74
2023/03/13 11:09:58;;;;;;;;;;;;;;;18.16;36.92;92212.88;2055641;70;20429;-75
2023/03/13 11:12:23;;;;;;;;;;;;;;;19.74;35.67;92205.66;2068539;69;20065;-75
2023/03/13 11:14:55;;;;;;;;;;;;;;;21.02;31.46;92207.81;2055608;70;20046;-75
2023/03/13 11:17:29;;;;;;;;;;;;;;;21.52;29.76;92206.34;2055485;70;20051;-75
2023/03/13 11:20:00;;;;;;;;;;;;;;;21.90;30.39;92206.09;2055817;70;20135;-75
2023/03/13 11:22:35;;;;;;;;;;;;;;;23.33;31.66;92198.69;2055477;70;20447;-76
2023/03/13 11:25:12;;;;;;;;;;;;;;;25.00;28.20;92186.88;2055578;70;20090;-75
2023/03/13 11:27:58;;;;;;;;;;;;;;;25.20;27.94;92177.50;2055473;70;20066;-75
2023/03/13 11:30:36;;;;;;;;;;;;;;;24.21;27.20;92179.63;2052967;69;20089;-75
2023/03/13 11:33:04;;;;;;;;;;;;;;;24.06;27.04;92172.44;2055468;69;20069;-76
2023/03/13 11:35:43;;;;;;;;;;;;;;;23.51;27.31;92172.22;2055562;70;20157;-76
2023/03/13 11:38:18;;;;;;;;;;;;;;;22.84;28.72;92170.38;2055532;70;20113;-75
2023/03/13 11:41:03;;;;;;;;;;;;;;;25.06;28.24;92163.81;2055598;70;20418;-75
2023/03/13 11:43:31;;;;;;;;;;;;;;;27.24;25.04;92162.69;2055604;70;20046;-76
2023/03/13 11:46:09;;;;;;;;;;;;;;;27.39;23.72;92153.84;2055525;70;20069;-75
2023/03/13 11:48:43;;;;;;;;;;;;;;;29.66;22.09;92136.81;2055338;70;20078;-76
2023/03/13 11:51:27;;;;;;;;;;;;;;;30.81;21.60;92121.25;2055672;70;20055;-76
2023/03/13 11:54:16;;;;;;;;;;;;;;;30.70;19.55;92117.88;2055589;70;20047;-76
2023/03/13 11:56:47;;;;;;;;;;;;;;;32.34;19.08;92097.47;2055562;70;20099;-76
2023/03/13 11:59:25;;;;;;;;;;;;;;;31.71;18.65;92084.06;2068427;69;20054;-76
2023/03/13 12:01:54;;;;;;;;;;;;;;;30.42;18.22;92072.06;2055407;70;20099;-77
2023/03/13 12:04:39;;;;;;;;;;;;;;;31.91;18.26;92068.22;2055310;70;20059;-77
2023/03/13 12:07:07;;;;;;;;;;;;;;;29.31;20.53;92056.97;2055377;70;20081;-77
2023/03/13 12:09:40;;;;;;;;;;;;;;;26.01;22.24;92049.66;2055429;70;20082;-77
2023/03/13 12:12:24;;;;;;;;;;;;;;;28.95;19.56;92054.75;2055387;70;20066;-77
2023/03/13 12:14:55;;;;;;;;;;;;;;;29.66;17.59;92049.81;2055482;70;20050;-76
2023/03/13 12:17:39;;;;;;;;;;;;;;;28.28;19.30;92037.03;2062347;69;20046;-77
2023/03/13 12:20:08;;;;;;;;;;;;;;;25.82;22.19;92029.59;2055388;69;20179;-77
2023/03/13 12:22:47;;;;;;;;;;;;;;;24.61;23.20;92022.19;2055467;70;20418;-77
2023/03/13 12:25:28;;;;;;;;;;;;;;;25.12;23.03;92008.34;2055343;70;20116;-77
2023/03/13 12:28:16;;;;;;;;;;;;;;;25.29;24.00;92011.88;2055344;70;20090;-77
2023/03/13 12:30:47;;;;;;;;;;;;;;;24.27;24.25;91998.47;2055476;69;20050;-75
2023/03/13 12:33:20;;;;;;;;;;;;;;;24.38;23.75;91987.69;2055324;69;20051;-75
2023/03/13 12:35:51;;;;;;;;;;;;;;;22.23;26.01;91986.44;2068764;69;20053;-74
2023/03/13 12:38:23;;;;;;;;;;;;;;;22.89;25.99;91969.53;2055952;69;20136;-75
2023/03/13 12:40:54;;;;;;;;;;;;;;;22.37;26.12;91965.00;2055911;70;20078;-75
2023/03/13 12:43:22;;;;;;;;;;;;;;;22.19;26.78;91954.16;2055869;69;20139;-75
2023/03/13 12:45:57;;;;;;;;;;;;;;;21.48;27.75;91966.50;2055756;70;20534;-77
2023/03/13 12:48:41;;;;;;;;;;;;;;;22.07;28.02;91955.47;2055660;70;20050;-74
2023/03/13 12:51:10;;;;;;;;;;;;;;;21.69;27.63;91947.34;2055754;70;20054;-78
2023/03/13 12:53:54;;;;;;;;;;;;;;;20.90;29.35;91940.91;2055770;70;20043;-75
2023/03/13 12:56:32;;;;;;;;;;;;;;;21.35;28.73;91939.22;2055689;69;20145;-76
2023/03/13 12:58:57;;;;;;;;;;;;;;;20.56;30.34;91930.50;2055938;70;20085;-76
2023/03/13 13:01:23;;;;;;;;;;;;;;;19.51;31.18;91925.47;2055756;70;20457;-76
2023/03/13 13:03:48;;;;;;;;;;;;;;;20.79;30.67;91914.31;2055740;70;20072;-76
2023/03/13 13:06:15;;;;;;;;;;;;;;;20.83;30.07;91920.06;2055855;70;20442;-76
2023/03/13 13:08:53;;;;;;;;;;;;;;;21.52;29.64;91909.28;2056037;69;20050;-75
2023/03/13 13:11:37;;;;;;;;;;;;;;;23.95;26.04;91915.84;2055736;70;20129;-76
2023/03/13 13:14:18;;;;;;;;;;;;;;;25.99;24.88;91905.50;2055806;70;20490;-76